地図

経路データ

SID SEASON NUMBER BASIN SUBBASIN NAME ISO_TIME NATURE LAT LON WMO_WIND WMO_PRES WMO_AGENCY TRACK_TYPE DIST2LAND LANDFALL IFLAG USA_AGENCY USA_ATCF_ID USA_LAT USA_LON USA_RECORD USA_STATUS USA_WIND USA_PRES USA_SSHS USA_R34_NE USA_R34_SE USA_R34_SW USA_R34_NW USA_R50_NE USA_R50_SE USA_R50_SW USA_R50_NW USA_R64_NE USA_R64_SE USA_R64_SW USA_R64_NW USA_POCI USA_ROCI USA_RMW USA_EYE TOKYO_LAT TOKYO_LON TOKYO_GRADE TOKYO_WIND TOKYO_PRES TOKYO_R50_DIR TOKYO_R50_LONG TOKYO_R50_SHORT TOKYO_R30_DIR TOKYO_R30_LONG TOKYO_R30_SHORT TOKYO_LAND CMA_LAT CMA_LON CMA_CAT CMA_WIND CMA_PRES HKO_LAT HKO_LON HKO_CAT HKO_WIND HKO_PRES NEWDELHI_LAT NEWDELHI_LON NEWDELHI_GRADE NEWDELHI_WIND NEWDELHI_PRES NEWDELHI_CI NEWDELHI_DP NEWDELHI_POCI REUNION_LAT REUNION_LON REUNION_TYPE REUNION_WIND REUNION_PRES REUNION_TNUM REUNION_CI REUNION_RMW REUNION_R34_NE REUNION_R34_SE REUNION_R34_SW REUNION_R34_NW REUNION_R50_NE REUNION_R50_SE REUNION_R50_SW REUNION_R50_NW REUNION_R64_NE REUNION_R64_SE REUNION_R64_SW REUNION_R64_NW BOM_LAT BOM_LON BOM_TYPE BOM_WIND BOM_PRES BOM_TNUM BOM_CI BOM_RMW BOM_R34_NE BOM_R34_SE BOM_R34_SW BOM_R34_NW BOM_R50_NE BOM_R50_SE BOM_R50_SW BOM_R50_NW BOM_R64_NE BOM_R64_SE BOM_R64_SW BOM_R64_NW BOM_ROCI BOM_POCI BOM_EYE BOM_POS_METHOD BOM_PRES_METHOD NADI_LAT NADI_LON NADI_CAT NADI_WIND NADI_PRES WELLINGTON_LAT WELLINGTON_LON WELLINGTON_WIND WELLINGTON_PRES DS824_LAT DS824_LON DS824_STAGE DS824_WIND DS824_PRES TD9636_LAT TD9636_LON TD9636_STAGE TD9636_WIND TD9636_PRES TD9635_LAT TD9635_LON TD9635_WIND TD9635_PRES TD9635_ROCI NEUMANN_LAT NEUMANN_LON NEUMANN_CLASS NEUMANN_WIND NEUMANN_PRES MLC_LAT MLC_LON MLC_CLASS MLC_WIND MLC_PRES USA_GUST BOM_GUST BOM_GUST_PER REUNION_GUST REUNION_GUST_PER USA_SEAHGT USA_SEARAD_NE USA_SEARAD_SE USA_SEARAD_SW USA_SEARAD_NW STORM_SPEED STORM_DIR
1947275N14142 1947 74 WP MM PAULINE 1947-10-01 12:00:00 NR 14.0000 141.700 main 1759 1624 __________O___ -1 14.0000 141.700 7 27 279
1947275N14142 1947 74 WP MM PAULINE 1947-10-01 15:00:00 NR 14.2002 140.351 main 1624 1492 __________P___ -1 14.2002 140.351 7 26 279
1947275N14142 1947 74 WP MM PAULINE 1947-10-01 18:00:00 NR 14.3868 139.070 main 1492 1377 __________P___ -1 14.3868 139.070 7 24 279
1947275N14142 1947 74 WP MM PAULINE 1947-10-01 21:00:00 NR 14.5546 137.929 main 1368 1275 __________P___ -1 14.5546 137.929 7 20 279
1947275N14142 1947 74 WP MM PAULINE 1947-10-02 00:00:00 NR 14.7000 137.000 main 1275 1203 __________O___ -1 14.7000 137.000 7 16 280
1947275N14142 1947 74 WP MM PAULINE 1947-10-02 03:00:00 NR 14.8219 136.327 main 1203 1203 __________P___ -1 14.8219 136.327 7 7 300
1947275N14142 1947 74 WP MM PAULINE 1947-10-02 06:00:00 TS 15.0432 136.384 main 1219 1204 O________OPO__ jtwc_wp WP161947 15.2000 137.100 40 0 15.2000 137.100 TC 40 14.9255 135.847 7 15.2000 137.100 40 999 300 5 339
1947275N14142 1947 74 WP MM PAULINE 1947-10-02 09:00:00 TS 15.2450 136.159 main 1204 1168 P________PPP__ WP161947 15.3973 136.620 42 0 15.3973 136.620 TC 42 15.0166 135.468 7 15.3973 136.620 42 998 330 8 302
1947275N14142 1947 74 WP MM PAULINE 1947-10-02 12:00:00 TS 15.4462 135.723 main 1158 1104 O________OOO__ jtwc_wp WP161947 15.6000 136.000 45 0 15.6000 136.000 TC 45 15.1000 135.100 2 45 15.6000 136.000 45 998 360 12 290
1947275N14142 1947 74 WP MM PAULINE 1947-10-02 15:00:00 TS 15.6484 135.026 main 1094 1031 P________PPP__ WP161947 15.8080 135.165 47 0 15.8080 135.165 TC 47 15.1697 134.607 2 47 15.8080 135.165 47 997 390 15 284
1947275N14142 1947 74 WP MM PAULINE 1947-10-02 18:00:00 TS 15.8087 134.252 main 1031 967 O________OPO__ jtwc_wp WP161947 16.0000 134.300 50 0 16.0000 134.300 TC 50 15.2347 134.107 2 50 16.0000 134.300 50 996 420 14 283
1947275N14142 1947 74 WP MM PAULINE 1947-10-02 21:00:00 TS 15.9559 133.599 main 971 928 P________PPP__ WP161947 16.1722 133.597 52 0 16.1722 133.597 TC 52 15.3072 133.604 2 52 16.1722 133.597 52 994 450 12 283
1947275N14142 1947 74 WP MM PAULINE 1947-10-03 00:00:00 TS 16.0750 133.025 main 919 886 O________OOO__ jtwc_wp WP161947 16.3000 133.000 55 0 16.3000 133.000 TC 55 15.4000 133.100 2 55 16.3000 133.000 55 993 480 10 282
1947275N14142 1947 74 WP MM PAULINE 1947-10-03 03:00:00 TS 16.1628 132.554 main 886 840 P________PPP__ WP161947 16.3717 132.537 60 0 16.3717 132.537 TC 60 15.5362 132.604 2 60 16.3717 132.537 60 991 450 10 279
1947275N14142 1947 74 WP MM PAULINE 1947-10-03 06:00:00 TS 16.2230 132.027 main 831 775 O________OPO__ jtwc_wp WP161947 16.4000 132.000 65 1 16.4000 132.000 TC 65 15.6919 132.108 2 65 16.4000 132.000 65 990 420 13 274
1947275N14142 1947 74 WP MM PAULINE 1947-10-03 09:00:00 TS 16.2637 131.215 main 766 707 P________PPP__ WP161947 16.4010 131.085 70 1 16.4010 131.085 TC 70 15.8518 131.607 2 70 16.4010 131.085 70 988 420 15 273
1947275N14142 1947 74 WP MM PAULINE 1947-10-03 12:00:00 TS 16.3000 130.425 main 698 658 O________OOO__ jtwc_wp WP161947 16.4000 130.200 75 1 16.4000 130.200 TC 75 16.0000 131.100 3 75 16.4000 130.200 75 987 420 12 274
1947275N14142 1947 74 WP MM PAULINE 1947-10-03 15:00:00 TS 16.3574 129.928 main 653 624 P________PPP__ WP161947 16.4343 129.718 77 1 16.4343 129.718 TC 77 16.1266 130.558 3 76 16.4343 129.718 77 985 420 8 279
1947275N14142 1947 74 WP MM PAULINE 1947-10-03 18:00:00 TS 16.4344 129.553 main 624 591 O________OPO__ jtwc_wp WP161947 16.5000 129.400 80 1 16.5000 129.400 TC 80 16.2377 130.013 3 77 16.5000 129.400 80 984 420 8 283
1947275N14142 1947 74 WP MM PAULINE 1947-10-03 21:00:00 TS 16.5211 129.165 main 591 560 P________PPP__ WP161947 16.5848 129.057 80 1 16.5848 129.057 TC 80 16.3298 129.486 3 78 16.5848 129.057 80 982 450 8 284
1947275N14142 1947 74 WP MM PAULINE 1947-10-04 00:00:00 TS 16.6250 128.775 main 560 531 O________OOO__ jtwc_wp WP161947 16.7000 128.700 80 1 16.7000 128.700 TC 80 16.4000 129.000 4 80 16.7000 128.700 80 981 480 8 286
1947275N14142 1947 74 WP MM PAULINE 1947-10-04 03:00:00 TS 16.7423 128.341 main 522 503 P________PPP__ WP161947 16.8425 128.258 82 1 16.8425 128.258 TC 82 16.4417 128.590 4 82 16.8425 128.258 82 979 450 9 286
1947275N14142 1947 74 WP MM PAULINE 1947-10-04 06:00:00 TS 16.8660 127.905 main 503 479 O________OPO__ jtwc_wp WP161947 17.0000 127.800 85 2 17.0000 127.800 TC 85 16.4640 128.220 4 85 17.0000 127.800 85 977 420 8 287
1947275N14142 1947 74 WP MM PAULINE 1947-10-04 09:00:00 TS 16.9879 127.499 main 479 458 P________PPP__ WP161947 17.1575 127.378 87 2 17.1575 127.378 TC 87 16.4793 127.865 4 87 17.1575 127.378 87 975 420 8 287
1947275N14142 1947 74 WP MM PAULINE 1947-10-04 12:00:00 TS 17.1000 127.125 main 458 447 O________OOO__ jtwc_wp WP161947 17.3000 127.000 90 2 17.3000 127.000 TC 90 16.5000 127.500 4 90 17.3000 127.000 90 974 420 7 287
1947275N14142 1947 74 WP MM PAULINE 1947-10-04 15:00:00 TS 17.1880 126.798 main 447 426 P________PPP__ WP161947 17.4073 126.692 90 2 17.4073 126.692 TC 90 16.5301 127.113 4 91 17.4073 126.692 90 972 420 6 285
1947275N14142 1947 74 WP MM PAULINE 1947-10-04 18:00:00 TS 17.2673 126.477 main 426 385 O________OPO__ jtwc_wp WP161947 17.5000 126.400 90 2 17.5000 126.400 TC 90 16.5692 126.710 4 92 17.5000 126.400 90 970 420 7 285
1947275N14142 1947 74 WP MM PAULINE 1947-10-04 21:00:00 TS 17.3559 126.123 main 385 342 P________PPP__ WP161947 17.5999 126.072 92 2 17.5999 126.072 TC 92 16.6237 126.276 4 93 17.5999 126.072 92 968 450 7 284
1947275N14142 1947 74 WP MM PAULINE 1947-10-05 00:00:00 TS 17.4500 125.725 main 344 302 O________OOO__ jtwc_wp WP161947 17.7000 125.700 95 2 17.7000 125.700 TC 95 16.7000 125.800 4 95 17.7000 125.700 95 966 480 8 283
1947275N14142 1947 74 WP MM PAULINE 1947-10-05 03:00:00 TS 17.5442 125.276 main 302 253 P________PPP__ WP161947 17.7924 125.280 97 3 17.7924 125.280 TC 97 16.7995 125.264 4 96 17.7924 125.280 97 964 480 9 283
1947275N14142 1947 74 WP MM PAULINE 1947-10-05 06:00:00 TS 17.6550 124.772 main 256 209 O________OPO__ jtwc_wp WP161947 17.9000 124.800 100 3 17.9000 124.800 TC 100 16.9202 124.688 4 97 17.9000 124.800 100 962 480 10 285
1947275N14142 1947 74 WP MM PAULINE 1947-10-05 09:00:00 TS 17.8069 124.239 main 198 153 P________PPP__ WP161947 18.0573 124.288 100 3 18.0573 124.288 TC 100 17.0557 124.092 4 98 18.0573 124.288 100 960 510 11 285
1947275N14142 1947 74 WP MM PAULINE 1947-10-05 12:00:00 TS 17.9500 123.650 main 151 81 O________OOO__ jtwc_wp WP161947 18.2000 123.700 100 3 18.2000 123.700 TC 100 17.2000 123.500 4 100 18.2000 123.700 100 958 540 12 280
1947275N14142 1947 74 WP MM PAULINE 1947-10-05 15:00:00 TS 18.0252 122.998 main 81 21 P________PPP__ WP161947 18.2651 123.015 100 3 18.2651 123.015 TC 100 17.3056 122.946 4 96 18.2651 123.015 100 962 600 13 276
1947275N14142 1947 74 WP MM PAULINE 1947-10-05 18:00:00 TS 18.0810 122.325 main 10 0 O________OPO__ jtwc_wp WP161947 18.3000 122.300 100 3 18.3000 122.300 TC 100 17.4242 122.398 4 92 18.3000 122.300 100 966 660 13 274
1947275N14142 1947 74 WP MM PAULINE 1947-10-05 21:00:00 TS 18.1238 121.678 main 0 0 P________PPP__ WP161947 18.3049 121.620 92 2 18.3049 121.620 TC 92 17.5806 121.852 4 88 18.3049 121.620 92 965 540 12 278
1947275N14142 1947 74 WP MM PAULINE 1947-10-06 00:00:00 TS 18.2500 121.075 main 0 0 O________OOO__ jtwc_wp WP161947 18.4000 121.000 85 2 18.4000 121.000 TC 85 17.8000 121.300 4 85 18.4000 121.000 85 965 420 12 290
1947275N14142 1947 74 WP MM PAULINE 1947-10-06 03:00:00 TS 18.5224 120.533 main 15 15 P________PPP__ WP161947 18.6747 120.470 80 1 18.6747 120.470 TC 80 18.0655 120.723 4 81 18.6747 120.470 80 967 420 12 304
1947275N14142 1947 74 WP MM PAULINE 1947-10-06 06:00:00 TS 18.9250 120.035 main 84 84 O________OPO__ jtwc_wp WP161947 19.1000 120.000 75 1 19.1000 120.000 TC 75 18.3999 120.141 4 77 19.1000 120.000 75 969 420 13 314
1947275N14142 1947 74 WP MM PAULINE 1947-10-06 09:00:00 TS 19.4397 119.542 main 160 160 P________PPP__ WP161947 19.6499 119.535 72 1 19.6499 119.535 TC 72 18.8093 119.563 4 73 19.6499 119.535 72 971 390 14 319
1947275N14142 1947 74 WP MM PAULINE 1947-10-06 12:00:00 TS 19.9750 119.075 main 237 237 O________OOO__ jtwc_wp WP161947 20.2000 119.100 70 1 20.2000 119.100 TC 70 19.3000 119.000 4 70 20.2000 119.100 70 973 360 13 318
1947275N14142 1947 74 WP MM PAULINE 1947-10-06 15:00:00 TS 20.4113 118.617 main 274 268 P________PPP__ WP161947 20.5723 118.692 70 1 20.5723 118.692 TC 70 19.9282 118.390 4 71 20.5723 118.692 70 974 360 12 315
1947275N14142 1947 74 WP MM PAULINE 1947-10-06 18:00:00 TS 20.8308 118.176 main 286 223 O________OPO__ jtwc_wp WP161947 20.9000 118.300 70 1 20.9000 118.300 TC 70 20.6233 117.804 4 72 20.9000 118.300 70 976 360 12 318
1947275N14142 1947 74 WP MM PAULINE 1947-10-06 21:00:00 TS 21.3071 117.759 main 223 162 P________PPP__ WP161947 21.3073 117.915 72 1 21.3073 117.915 TC 72 21.3066 117.290 4 73 21.3073 117.915 72 978 330 12 320
1947275N14142 1947 74 WP MM PAULINE 1947-10-07 00:00:00 TS 21.7500 117.350 main 153 103 O________OOO__ jtwc_wp WP161947 21.7000 117.500 75 1 21.7000 117.500 TC 75 21.9000 116.900 4 75 21.7000 117.500 75 980 300 11 315
1947275N14142 1947 74 WP MM PAULINE 1947-10-07 03:00:00 TS 22.0794 116.933 main 98 56 P________PPP__ WP161947 22.0075 117.015 75 1 22.0075 117.015 TC 75 22.2954 116.689 4 71 22.0075 117.015 75 982 300 10 310
1947275N14142 1947 74 WP MM PAULINE 1947-10-07 06:00:00 TS 22.3790 116.528 main 55 11 O________OPO__ jtwc_wp WP161947 22.3000 116.500 75 1 22.3000 116.500 TC 75 22.5962 116.604 4 67 22.3000 116.500 75 984 300 10 307
1947275N14142 1947 74 WP MM PAULINE 1947-10-07 09:00:00 TS 22.6876 116.062 main 11 0 P________PPP__ WP161947 22.6200 115.814 67 1 22.6200 115.814 TC 67 22.8489 116.593 4 63 22.6352 115.996 67 986 270 9 316
1947275N14142 1947 74 WP MM PAULINE 1947-10-07 12:00:00 TS 23.0308 115.838 main 0 0 O________OOO__ jtwc_wp WP161947 23.0000 115.500 60 0 23.0000 115.500 TC 60 23.1000 116.600 2 60 23.0000 115.500 60 988 240 8 15
1947275N14142 1947 74 WP MM PAULINE 1947-10-07 15:00:00 TS 23.4731 116.284 main 0 0 P________PP___ WP161947 23.5166 116.135 52 0 23.5166 116.135 TC 52 23.3861 116.582 2 13 47
1947275N14142 1947 74 WP MM PAULINE 1947-10-07 18:00:00 TS 23.9197 116.874 main 0 0 O________OP___ jtwc_wp WP161947 24.0000 117.000 45 0 24.0000 117.000 TC 45 23.7056 116.537 2 11 46
1947275N14142 1947 74 WP MM PAULINE 1947-10-07 21:00:00 TS 24.2389 117.155 main 0 0 P________PP___ WP161947 24.2868 117.326 37 0 24.2868 117.326 TC 37 24.0473 116.473 2 7 37
1947275N14142 1947 74 WP MM PAULINE 1947-10-08 00:00:00 TS 24.4857 117.343 main 0 0 O________OO___ jtwc_wp WP161947 24.5000 117.500 30 -1 24.5000 117.500 TC 30 24.4000 116.400 7 7 46
1947275N14142 1947 74 WP MM PAULINE 1947-10-08 03:00:00 TS 24.7379 117.724 main 0 0 P________P____ WP161947 24.7379 117.724 27 -1 24.7379 117.724 TC 27 7 8 49
1947275N14142 1947 74 WP MM PAULINE 1947-10-08 06:00:00 TS 25.0000 118.000 main 0 O________O____ jtwc_wp WP161947 25.0000 118.000 25 -1 25.0000 118.000 TC 25 7 7 44

デジタル台風データ・検索

IBTrACS Databaseについて

本データベースは、米国NOAAが公開する1842年以降の世界の熱帯低気圧のベストトラックデータアーカイブInternational Best Track Archive for Climate Stewardship (IBTrACS)を、ウェブで閲覧しやすい形式に変換したものです。

最終更新日:2021-11-26